Aviation Digital Data Service (ADDS)

Output produced by METARs form (1038 UTC 18 June 2019)
found at http://www.aviationweather.gov/metar/data/
 
METAR text: UKLL 181030Z 08002MPS 360V120 9999 BKN030 23/17 Q1020 R13/CLRD// NOSIG
Conditions at: UKLL (LVIV , UA) observed 1030 UTC 18 June 2019
Temperature: 23.0°C (73°F)
Dewpoint: 17.0°C (63°F) [RH = 69%]
Pressure (altimeter): 30.12 inches Hg (1020.0 mb)
Winds: from the E (80 degrees) at 5 MPH (4 knots; 2.1 m/s)
Visibility: 6 or more miles (10+ km)
Ceiling: 3000 feet AGL
Clouds: broken clouds at 3000 feet AGL
Weather: no significant weather observed at this time

METAR text: UKLL 181000Z 09003MPS 020V130 9999 BKN030 23/17 Q1020 R13/CLRD// NOSIG
Conditions at: UKLL (LVIV , UA) observed 1000 UTC 18 June 2019
Temperature: 23.0°C (73°F)
Dewpoint: 17.0°C (63°F) [RH = 69%]
Pressure (altimeter): 30.12 inches Hg (1020.0 mb)
Winds: from the E (90 degrees) at 7 MPH (6 knots; 3.1 m/s)
Visibility: 6 or more miles (10+ km)
Ceiling: 3000 feet AGL
Clouds: broken clouds at 3000 feet AGL
Weather: no significant weather observed at this time

METAR text: UKLL 180930Z 08003MPS 050V110 9999 FEW026 22/17 Q1021 R13/D NOSIG
Conditions at: UKLL (LVIV , UA) observed 0930 UTC 18 June 2019
Temperature: 22.0°C (72°F)
Dewpoint: 17.0°C (63°F) [RH = 73%]
Pressure (altimeter): 30.15 inches Hg (1021.0 mb)
Winds: from the E (80 degrees) at 7 MPH (6 knots; 3.1 m/s)
Visibility: 6 or more miles (10+ km)
Ceiling: at least 12,000 feet AGL
Clouds: few clouds at 2600 feet AGL
Weather: no significant weather observed at this time

METAR text: UKLL 180900Z 08003MPS 050V110 9999 FEW026 22/16 Q1021 R13/D NOSIG
Conditions at: UKLL (LVIV , UA) observed 0900 UTC 18 June 2019
Temperature: 22.0°C (72°F)
Dewpoint: 16.0°C (61°F) [RH = 69%]
Pressure (altimeter): 30.15 inches Hg (1021.0 mb)
Winds: from the E (80 degrees) at 7 MPH (6 knots; 3.1 m/s)
Visibility: 6 or more miles (10+ km)
Ceiling: at least 12,000 feet AGL
Clouds: few clouds at 2600 feet AGL
Weather: no significant weather observed at this time

METAR text: UKLL 180830Z 05004MPS 020V080 9999 FEW040 22/15 Q1021 R13/CLRD// NOSIG
Conditions at: UKLL (LVIV , UA) observed 0830 UTC 18 June 2019
Temperature: 22.0°C (72°F)
Dewpoint: 15.0°C (59°F) [RH = 65%]
Pressure (altimeter): 30.15 inches Hg (1021.0 mb)
Winds: from the NE (50 degrees) at 9 MPH (8 knots; 4.1 m/s)
Visibility: 6 or more miles (10+ km)
Ceiling: at least 12,000 feet AGL
Clouds: few clouds at 4000 feet AGL
Weather: no significant weather observed at this time

METAR text: UKLL 180800Z 06004MPS 030V090 9999 BKN043 20/15 Q1021 R13/D NOSIG
Conditions at: UKLL (LVIV , UA) observed 0800 UTC 18 June 2019
Temperature: 20.0°C (68°F)
Dewpoint: 15.0°C (59°F) [RH = 73%]
Pressure (altimeter): 30.15 inches Hg (1021.0 mb)
Winds: from the ENE (60 degrees) at 9 MPH (8 knots; 4.1 m/s)
Visibility: 6 or more miles (10+ km)
Ceiling: 4300 feet AGL
Clouds: broken clouds at 4300 feet AGL
Weather: no significant weather observed at this time

METAR text: UKLL 180730Z 07003MPS 9999 OVC033 19/15 Q1021 R13/CLRD// NOSIG
Conditions at: UKLL (LVIV , UA) observed 0730 UTC 18 June 2019
Temperature: 19.0°C (66°F)
Dewpoint: 15.0°C (59°F) [RH = 78%]
Pressure (altimeter): 30.15 inches Hg (1021.0 mb)
Winds: from the ENE (70 degrees) at 7 MPH (6 knots; 3.1 m/s)
Visibility: 6 or more miles (10+ km)
Ceiling: 3300 feet AGL
Clouds: overcast cloud deck at 3300 feet AGL
Weather: no significant weather observed at this time

METAR text: UKLL 180700Z 08003MPS 040V120 9999 OVC030 19/15 Q1021 R13/D NOSIG
Conditions at: UKLL (LVIV , UA) observed 0700 UTC 18 June 2019
Temperature: 19.0°C (66°F)
Dewpoint: 15.0°C (59°F) [RH = 78%]
Pressure (altimeter): 30.15 inches Hg (1021.0 mb)
Winds: from the E (80 degrees) at 7 MPH (6 knots; 3.1 m/s)
Visibility: 6 or more miles (10+ km)
Ceiling: 3000 feet AGL
Clouds: overcast cloud deck at 3000 feet AGL
Weather: no significant weather observed at this time

METAR text: UKLL 180630Z 08004MPS 040V100 9999 OVC030 18/15 Q1021 R13/CLRD// NOSIG
Conditions at: UKLL (LVIV , UA) observed 0630 UTC 18 June 2019
Temperature: 18.0°C (64°F)
Dewpoint: 15.0°C (59°F) [RH = 83%]
Pressure (altimeter): 30.15 inches Hg (1021.0 mb)
Winds: from the E (80 degrees) at 9 MPH (8 knots; 4.1 m/s)
Visibility: 6 or more miles (10+ km)
Ceiling: 3000 feet AGL
Clouds: overcast cloud deck at 3000 feet AGL
Weather: no significant weather observed at this time

METAR text: UKLL 180600Z 07003MPS 9999 OVC030 18/15 Q1021 R13/D NOSIG
Conditions at: UKLL (LVIV , UA) observed 0600 UTC 18 June 2019
Temperature: 18.0°C (64°F)
Dewpoint: 15.0°C (59°F) [RH = 83%]
Pressure (altimeter): 30.15 inches Hg (1021.0 mb)
Winds: from the ENE (70 degrees) at 7 MPH (6 knots; 3.1 m/s)
Visibility: 6 or more miles (10+ km)
Ceiling: 3000 feet AGL
Clouds: overcast cloud deck at 3000 feet AGL
Weather: no significant weather observed at this time

METAR text: UKLL 180530Z 09004MPS 060V120 9999 BKN033 18/15 Q1021 R13/D NOSIG
Conditions at: UKLL (LVIV , UA) observed 0530 UTC 18 June 2019
Temperature: 18.0°C (64°F)
Dewpoint: 15.0°C (59°F) [RH = 83%]
Pressure (altimeter): 30.15 inches Hg (1021.0 mb)
Winds: from the E (90 degrees) at 9 MPH (8 knots; 4.1 m/s)
Visibility: 6 or more miles (10+ km)
Ceiling: 3300 feet AGL
Clouds: broken clouds at 3300 feet AGL
Weather: no significant weather observed at this time

METAR text: UKLL 180500Z 08003MPS 060V130 9999 BKN034 18/15 Q1020 R13/D NOSIG
Conditions at: UKLL (LVIV , UA) observed 0500 UTC 18 June 2019
Temperature: 18.0°C (64°F)
Dewpoint: 15.0°C (59°F) [RH = 83%]
Pressure (altimeter): 30.12 inches Hg (1020.0 mb)
Winds: from the E (80 degrees) at 7 MPH (6 knots; 3.1 m/s)
Visibility: 6 or more miles (10+ km)
Ceiling: 3400 feet AGL
Clouds: broken clouds at 3400 feet AGL
Weather: no significant weather observed at this time

METAR text: UKLL 180430Z 07004MPS 9999 BKN034 18/15 Q1020 R13/CLRD// NOSIG
Conditions at: UKLL (LVIV , UA) observed 0430 UTC 18 June 2019
Temperature: 18.0°C (64°F)
Dewpoint: 15.0°C (59°F) [RH = 83%]
Pressure (altimeter): 30.12 inches Hg (1020.0 mb)
Winds: from the ENE (70 degrees) at 9 MPH (8 knots; 4.1 m/s)
Visibility: 6 or more miles (10+ km)
Ceiling: 3400 feet AGL
Clouds: broken clouds at 3400 feet AGL
Weather: no significant weather observed at this time

METAR text: UKLL 180400Z 06004MPS 030V090 9999 SCT034 18/15 Q1020 R13/D NOSIG
Conditions at: UKLL (LVIV , UA) observed 0400 UTC 18 June 2019
Temperature: 18.0°C (64°F)
Dewpoint: 15.0°C (59°F) [RH = 83%]
Pressure (altimeter): 30.12 inches Hg (1020.0 mb)
Winds: from the ENE (60 degrees) at 9 MPH (8 knots; 4.1 m/s)
Visibility: 6 or more miles (10+ km)
Ceiling: at least 12,000 feet AGL
Clouds: scattered clouds at 3400 feet AGL
Weather: no significant weather observed at this time

METAR text: UKLL 180330Z 06003MPS 9999 SCT043 18/15 Q1020 R13/CLRD// NOSIG
Conditions at: UKLL (LVIV , UA) observed 0330 UTC 18 June 2019
Temperature: 18.0°C (64°F)
Dewpoint: 15.0°C (59°F) [RH = 83%]
Pressure (altimeter): 30.12 inches Hg (1020.0 mb)
Winds: from the ENE (60 degrees) at 7 MPH (6 knots; 3.1 m/s)
Visibility: 6 or more miles (10+ km)
Ceiling: at least 12,000 feet AGL
Clouds: scattered clouds at 4300 feet AGL
Weather: no significant weather observed at this time

METAR text: UKLL 180300Z 07003MPS 040V100 9999 BKN034 18/14 Q1020 R13/D NOSIG
Conditions at: UKLL (LVIV , UA) observed 0300 UTC 18 June 2019
Temperature: 18.0°C (64°F)
Dewpoint: 14.0°C (57°F) [RH = 77%]
Pressure (altimeter): 30.12 inches Hg (1020.0 mb)
Winds: from the ENE (70 degrees) at 7 MPH (6 knots; 3.1 m/s)
Visibility: 6 or more miles (10+ km)
Ceiling: 3400 feet AGL
Clouds: broken clouds at 3400 feet AGL
Weather: no significant weather observed at this time

METAR text: UKLL 180230Z 04003MPS 360V070 9999 BKN034 18/14 Q1020 R13/D NOSIG
Conditions at: UKLL (LVIV , UA) observed 0230 UTC 18 June 2019
Temperature: 18.0°C (64°F)
Dewpoint: 14.0°C (57°F) [RH = 77%]
Pressure (altimeter): 30.12 inches Hg (1020.0 mb)
Winds: from the NE (40 degrees) at 7 MPH (6 knots; 3.1 m/s)
Visibility: 6 or more miles (10+ km)
Ceiling: 3400 feet AGL
Clouds: broken clouds at 3400 feet AGL
Weather: no significant weather observed at this time

METAR text: UKLL 180200Z 04002MPS 010V070 9999 SCT034 18/14 Q1020 R13/D NOSIG
Conditions at: UKLL (LVIV , UA) observed 0200 UTC 18 June 2019
Temperature: 18.0°C (64°F)
Dewpoint: 14.0°C (57°F) [RH = 77%]
Pressure (altimeter): 30.12 inches Hg (1020.0 mb)
Winds: from the NE (40 degrees) at 5 MPH (4 knots; 2.1 m/s)
Visibility: 6 or more miles (10+ km)
Ceiling: at least 12,000 feet AGL
Clouds: scattered clouds at 3400 feet AGL
Weather: no significant weather observed at this time

METAR text: UKLL 180130Z 05003MPS CAVOK 18/14 Q1020 R13/D NOSIG
Conditions at: UKLL (LVIV , UA) observed 0130 UTC 18 June 2019
Temperature: 18.0°C (64°F)
Dewpoint: 14.0°C (57°F) [RH = 77%]
Pressure (altimeter): 30.12 inches Hg (1020.0 mb)
Winds: from the NE (50 degrees) at 7 MPH (6 knots; 3.1 m/s)
Visibility: 6 or more miles (10+ km)
Ceiling: ceiling and visibility are OK
Clouds: unknown
Weather: no significant weather observed at this time

METAR text: UKLL 180100Z 03003MPS 340V060 CAVOK 18/14 Q1020 R31/D NOSIG
Conditions at: UKLL (LVIV , UA) observed 0100 UTC 18 June 2019
Temperature: 18.0°C (64°F)
Dewpoint: 14.0°C (57°F) [RH = 77%]
Pressure (altimeter): 30.12 inches Hg (1020.0 mb)
Winds: from the NNE (30 degrees) at 7 MPH (6 knots; 3.1 m/s)
Visibility: 6 or more miles (10+ km)
Ceiling: ceiling and visibility are OK
Clouds: unknown
Weather: no significant weather observed at this time

METAR text: UKLL 180030Z 03003MPS 350V070 CAVOK 18/14 Q1020 R31/D NOSIG
Conditions at: UKLL (LVIV , UA) observed 0030 UTC 18 June 2019
Temperature: 18.0°C (64°F)
Dewpoint: 14.0°C (57°F) [RH = 77%]
Pressure (altimeter): 30.12 inches Hg (1020.0 mb)
Winds: from the NNE (30 degrees) at 7 MPH (6 knots; 3.1 m/s)
Visibility: 6 or more miles (10+ km)
Ceiling: ceiling and visibility are OK
Clouds: unknown
Weather: no significant weather observed at this time

METAR text: UKLL 180000Z 06003MPS CAVOK 18/14 Q1020 R31/D NOSIG
Conditions at: UKLL (LVIV , UA) observed 0000 UTC 18 June 2019
Temperature: 18.0°C (64°F)
Dewpoint: 14.0°C (57°F) [RH = 77%]
Pressure (altimeter): 30.12 inches Hg (1020.0 mb)
Winds: from the ENE (60 degrees) at 7 MPH (6 knots; 3.1 m/s)
Visibility: 6 or more miles (10+ km)
Ceiling: ceiling and visibility are OK
Clouds: unknown
Weather: no significant weather observed at this time

METAR text: UKLL 172330Z 04003MPS 010V070 CAVOK 19/14 Q1020 R31/D NOSIG
Conditions at: UKLL (LVIV , UA) observed 2330 UTC 17 June 2019
Temperature: 19.0°C (66°F)
Dewpoint: 14.0°C (57°F) [RH = 73%]
Pressure (altimeter): 30.12 inches Hg (1020.0 mb)
Winds: from the NE (40 degrees) at 7 MPH (6 knots; 3.1 m/s)
Visibility: 6 or more miles (10+ km)
Ceiling: ceiling and visibility are OK
Clouds: unknown
Weather: no significant weather observed at this time

METAR text: UKLL 172300Z 02002MPS 350V050 CAVOK 19/14 Q1020 R31/D NOSIG
Conditions at: UKLL (LVIV , UA) observed 2300 UTC 17 June 2019
Temperature: 19.0°C (66°F)
Dewpoint: 14.0°C (57°F) [RH = 73%]
Pressure (altimeter): 30.12 inches Hg (1020.0 mb)
Winds: from the NNE (20 degrees) at 5 MPH (4 knots; 2.1 m/s)
Visibility: 6 or more miles (10+ km)
Ceiling: ceiling and visibility are OK
Clouds: unknown
Weather: no significant weather observed at this time

METAR text: UKLL 172230Z 02002MPS CAVOK 19/14 Q1020 R31/D NOSIG
Conditions at: UKLL (LVIV , UA) observed 2230 UTC 17 June 2019
Temperature: 19.0°C (66°F)
Dewpoint: 14.0°C (57°F) [RH = 73%]
Pressure (altimeter): 30.12 inches Hg (1020.0 mb)
Winds: from the NNE (20 degrees) at 5 MPH (4 knots; 2.1 m/s)
Visibility: 6 or more miles (10+ km)
Ceiling: ceiling and visibility are OK
Clouds: unknown
Weather: no significant weather observed at this time

METAR text: UKLL 172200Z 01003MPS CAVOK 19/14 Q1020 R31/D NOSIG
Conditions at: UKLL (LVIV , UA) observed 2200 UTC 17 June 2019
Temperature: 19.0°C (66°F)
Dewpoint: 14.0°C (57°F) [RH = 73%]
Pressure (altimeter): 30.12 inches Hg (1020.0 mb)
Winds: from the N (10 degrees) at 7 MPH (6 knots; 3.1 m/s)
Visibility: 6 or more miles (10+ km)
Ceiling: ceiling and visibility are OK
Clouds: unknown
Weather: no significant weather observed at this time

METAR text: UKLL 172130Z 01003MPS 340V040 CAVOK 19/14 Q1020 R31/D NOSIG
Conditions at: UKLL (LVIV , UA) observed 2130 UTC 17 June 2019
Temperature: 19.0°C (66°F)
Dewpoint: 14.0°C (57°F) [RH = 73%]
Pressure (altimeter): 30.12 inches Hg (1020.0 mb)
Winds: from the N (10 degrees) at 7 MPH (6 knots; 3.1 m/s)
Visibility: 6 or more miles (10+ km)
Ceiling: ceiling and visibility are OK
Clouds: unknown
Weather: no significant weather observed at this time

METAR text: UKLL 172100Z 03002MPS 350V070 CAVOK 19/14 Q1020 R31/D NOSIG
Conditions at: UKLL (LVIV , UA) observed 2100 UTC 17 June 2019
Temperature: 19.0°C (66°F)
Dewpoint: 14.0°C (57°F) [RH = 73%]
Pressure (altimeter): 30.12 inches Hg (1020.0 mb)
Winds: from the NNE (30 degrees) at 5 MPH (4 knots; 2.1 m/s)
Visibility: 6 or more miles (10+ km)
Ceiling: ceiling and visibility are OK
Clouds: unknown
Weather: no significant weather observed at this time

METAR text: UKLL 172030Z 01003MPS 330V040 CAVOK 19/14 Q1020 R31/D NOSIG
Conditions at: UKLL (LVIV , UA) observed 2030 UTC 17 June 2019
Temperature: 19.0°C (66°F)
Dewpoint: 14.0°C (57°F) [RH = 73%]
Pressure (altimeter): 30.12 inches Hg (1020.0 mb)
Winds: from the N (10 degrees) at 7 MPH (6 knots; 3.1 m/s)
Visibility: 6 or more miles (10+ km)
Ceiling: ceiling and visibility are OK
Clouds: unknown
Weather: no significant weather observed at this time

METAR text: UKLL 172000Z 35003MPS CAVOK 19/14 Q1020 R31/D NOSIG
Conditions at: UKLL (LVIV , UA) observed 2000 UTC 17 June 2019
Temperature: 19.0°C (66°F)
Dewpoint: 14.0°C (57°F) [RH = 73%]
Pressure (altimeter): 30.12 inches Hg (1020.0 mb)
Winds: from the N (350 degrees) at 7 MPH (6 knots; 3.1 m/s)
Visibility: 6 or more miles (10+ km)
Ceiling: ceiling and visibility are OK
Clouds: unknown
Weather: no significant weather observed at this time

METAR text: UKLL 171930Z 01003MPS 9999 BKN049 19/14 Q1020 R31/D NOSIG
Conditions at: UKLL (LVIV , UA) observed 1930 UTC 17 June 2019
Temperature: 19.0°C (66°F)
Dewpoint: 14.0°C (57°F) [RH = 73%]
Pressure (altimeter): 30.12 inches Hg (1020.0 mb)
Winds: from the N (10 degrees) at 7 MPH (6 knots; 3.1 m/s)
Visibility: 6 or more miles (10+ km)
Ceiling: 4900 feet AGL
Clouds: broken clouds at 4900 feet AGL
Weather: no significant weather observed at this time

METAR text: UKLL 171900Z 01003MPS 9999 BKN049 19/14 Q1020 R31/D NOSIG
Conditions at: UKLL (LVIV , UA) observed 1900 UTC 17 June 2019
Temperature: 19.0°C (66°F)
Dewpoint: 14.0°C (57°F) [RH = 73%]
Pressure (altimeter): 30.12 inches Hg (1020.0 mb)
Winds: from the N (10 degrees) at 7 MPH (6 knots; 3.1 m/s)
Visibility: 6 or more miles (10+ km)
Ceiling: 4900 feet AGL
Clouds: broken clouds at 4900 feet AGL
Weather: no significant weather observed at this time

METAR text: UKLL 171830Z 01004MPS 340V040 9999 BKN048 20/15 Q1020 R31/D NOSIG
Conditions at: UKLL (LVIV , UA) observed 1830 UTC 17 June 2019
Temperature: 20.0°C (68°F)
Dewpoint: 15.0°C (59°F) [RH = 73%]
Pressure (altimeter): 30.12 inches Hg (1020.0 mb)
Winds: from the N (10 degrees) at 9 MPH (8 knots; 4.1 m/s)
Visibility: 6 or more miles (10+ km)
Ceiling: 4800 feet AGL
Clouds: broken clouds at 4800 feet AGL
Weather: no significant weather observed at this time

METAR text: UKLL 171800Z 01004MPS 9999 BKN048 20/14 Q1020 R31/D NOSIG
Conditions at: UKLL (LVIV , UA) observed 1800 UTC 17 June 2019
Temperature: 20.0°C (68°F)
Dewpoint: 14.0°C (57°F) [RH = 68%]
Pressure (altimeter): 30.12 inches Hg (1020.0 mb)
Winds: from the N (10 degrees) at 9 MPH (8 knots; 4.1 m/s)
Visibility: 6 or more miles (10+ km)
Ceiling: 4800 feet AGL
Clouds: broken clouds at 4800 feet AGL
Weather: no significant weather observed at this time

METAR text: UKLL 171730Z 01005MPS 340V040 9999 BKN044 21/15 Q1019 R31/CLRD// NOSIG
Conditions at: UKLL (LVIV , UA) observed 1730 UTC 17 June 2019
Temperature: 21.0°C (70°F)
Dewpoint: 15.0°C (59°F) [RH = 69%]
Pressure (altimeter): 30.09 inches Hg (1019.0 mb)
Winds: from the N (10 degrees) at 12 MPH (10 knots; 5.1 m/s)
Visibility: 6 or more miles (10+ km)
Ceiling: 4400 feet AGL
Clouds: broken clouds at 4400 feet AGL
Weather: no significant weather observed at this time

METAR text: UKLL 171700Z 01005MPS 9999 BKN044 21/15 Q1019 R31/D NOSIG
Conditions at: UKLL (LVIV , UA) observed 1700 UTC 17 June 2019
Temperature: 21.0°C (70°F)
Dewpoint: 15.0°C (59°F) [RH = 69%]
Pressure (altimeter): 30.09 inches Hg (1019.0 mb)
Winds: from the N (10 degrees) at 12 MPH (10 knots; 5.1 m/s)
Visibility: 6 or more miles (10+ km)
Ceiling: 4400 feet AGL
Clouds: broken clouds at 4400 feet AGL
Weather: no significant weather observed at this time

METAR text: UKLL 171630Z 36004MPS 330V030 9999 BKN036 22/16 Q1019 R31/CLRD// NOSIG
Conditions at: UKLL (LVIV , UA) observed 1630 UTC 17 June 2019
Temperature: 22.0°C (72°F)
Dewpoint: 16.0°C (61°F) [RH = 69%]
Pressure (altimeter): 30.09 inches Hg (1019.0 mb)
Winds: from the N (360 degrees) at 9 MPH (8 knots; 4.1 m/s)
Visibility: 6 or more miles (10+ km)
Ceiling: 3600 feet AGL
Clouds: broken clouds at 3600 feet AGL
Weather: no significant weather observed at this time

METAR text: UKLL 171600Z 01004MPS 340V050 9999 BKN036 22/16 Q1019 R31/D NOSIG
Conditions at: UKLL (LVIV , UA) observed 1600 UTC 17 June 2019
Temperature: 22.0°C (72°F)
Dewpoint: 16.0°C (61°F) [RH = 69%]
Pressure (altimeter): 30.09 inches Hg (1019.0 mb)
Winds: from the N (10 degrees) at 9 MPH (8 knots; 4.1 m/s)
Visibility: 6 or more miles (10+ km)
Ceiling: 3600 feet AGL
Clouds: broken clouds at 3600 feet AGL
Weather: no significant weather observed at this time

METAR text: UKLL 171530Z 35004MPS 310V060 9999 BKN036 23/16 Q1019 R31/CLRD// TEMPO -TSRAGR BKN025CB
Conditions at: UKLL (LVIV , UA) observed 1530 UTC 17 June 2019
Temperature: 23.0°C (73°F)
Dewpoint: 16.0°C (61°F) [RH = 65%]
Pressure (altimeter): 30.09 inches Hg (1019.0 mb)
Winds: from the N (350 degrees) at 9 MPH (8 knots; 4.1 m/s)
Visibility: 6 or more miles (10+ km)
Ceiling: 3600 feet AGL
Clouds: broken clouds at 3600 feet AGL
Weather: no significant weather observed at this time

METAR text: UKLL 171500Z 01003MPS 310V040 9999 BKN036 23/16 Q1019 R31/D TEMPO -TSRAGR BKN025CB
Conditions at: UKLL (LVIV , UA) observed 1500 UTC 17 June 2019
Temperature: 23.0°C (73°F)
Dewpoint: 16.0°C (61°F) [RH = 65%]
Pressure (altimeter): 30.09 inches Hg (1019.0 mb)
Winds: from the N (10 degrees) at 7 MPH (6 knots; 3.1 m/s)
Visibility: 6 or more miles (10+ km)
Ceiling: 3600 feet AGL
Clouds: broken clouds at 3600 feet AGL
Weather: no significant weather observed at this time

METAR text: UKLL 171430Z 35004MPS 300V020 9999 BKN036 23/16 Q1019 R31/CLRD// TEMPO -TSRAGR BKN025CB
Conditions at: UKLL (LVIV , UA) observed 1430 UTC 17 June 2019
Temperature: 23.0°C (73°F)
Dewpoint: 16.0°C (61°F) [RH = 65%]
Pressure (altimeter): 30.09 inches Hg (1019.0 mb)
Winds: from the N (350 degrees) at 9 MPH (8 knots; 4.1 m/s)
Visibility: 6 or more miles (10+ km)
Ceiling: 3600 feet AGL
Clouds: broken clouds at 3600 feet AGL
Weather: no significant weather observed at this time

METAR text: UKLL 171400Z 34004MPS 300V010 9999 FEW036 24/16 Q1019 R31/D TEMPO -TSRAGR BKN025CB
Conditions at: UKLL (LVIV , UA) observed 1400 UTC 17 June 2019
Temperature: 24.0°C (75°F)
Dewpoint: 16.0°C (61°F) [RH = 61%]
Pressure (altimeter): 30.09 inches Hg (1019.0 mb)
Winds: from the NNW (340 degrees) at 9 MPH (8 knots; 4.1 m/s)
Visibility: 6 or more miles (10+ km)
Ceiling: at least 12,000 feet AGL
Clouds: few clouds at 3600 feet AGL
Weather: no significant weather observed at this time

METAR text: UKLL 171330Z 35005MPS 9999 FEW036 23/15 Q1019 R31/D TEMPO -TSRAGR BKN025CB
Conditions at: UKLL (LVIV , UA) observed 1330 UTC 17 June 2019
Temperature: 23.0°C (73°F)
Dewpoint: 15.0°C (59°F) [RH = 61%]
Pressure (altimeter): 30.09 inches Hg (1019.0 mb)
Winds: from the N (350 degrees) at 12 MPH (10 knots; 5.1 m/s)
Visibility: 6 or more miles (10+ km)
Ceiling: at least 12,000 feet AGL
Clouds: few clouds at 3600 feet AGL
Weather: no significant weather observed at this time

METAR text: UKLL 171300Z 33004MPS 290V050 9999 FEW036 23/16 Q1020 R31/D TEMPO -TSRAGR BKN025CB
Conditions at: UKLL (LVIV , UA) observed 1300 UTC 17 June 2019
Temperature: 23.0°C (73°F)
Dewpoint: 16.0°C (61°F) [RH = 65%]
Pressure (altimeter): 30.12 inches Hg (1020.0 mb)
Winds: from the NNW (330 degrees) at 9 MPH (8 knots; 4.1 m/s)
Visibility: 6 or more miles (10+ km)
Ceiling: at least 12,000 feet AGL
Clouds: few clouds at 3600 feet AGL
Weather: no significant weather observed at this time

METAR text: UKLL 171230Z 34004MPS 300V030 9999 FEW033 23/15 Q1020 R31/CLRD// NOSIG
Conditions at: UKLL (LVIV , UA) observed 1230 UTC 17 June 2019
Temperature: 23.0°C (73°F)
Dewpoint: 15.0°C (59°F) [RH = 61%]
Pressure (altimeter): 30.12 inches Hg (1020.0 mb)
Winds: from the NNW (340 degrees) at 9 MPH (8 knots; 4.1 m/s)
Visibility: 6 or more miles (10+ km)
Ceiling: at least 12,000 feet AGL
Clouds: few clouds at 3300 feet AGL
Weather: no significant weather observed at this time

METAR text: UKLL 171200Z 31004MPS 290V010 9999 FEW030 23/15 Q1020 R31/CLRD// NOSIG
Conditions at: UKLL (LVIV , UA) observed 1200 UTC 17 June 2019
Temperature: 23.0°C (73°F)
Dewpoint: 15.0°C (59°F) [RH = 61%]
Pressure (altimeter): 30.12 inches Hg (1020.0 mb)
Winds: from the NW (310 degrees) at 9 MPH (8 knots; 4.1 m/s)
Visibility: 6 or more miles (10+ km)
Ceiling: at least 12,000 feet AGL
Clouds: few clouds at 3000 feet AGL
Weather: no significant weather observed at this time

METAR text: UKLL 171130Z 30004MPS 270V330 9999 FEW026 23/15 Q1020 R31/D NOSIG
Conditions at: UKLL (LVIV , UA) observed 1130 UTC 17 June 2019
Temperature: 23.0°C (73°F)
Dewpoint: 15.0°C (59°F) [RH = 61%]
Pressure (altimeter): 30.12 inches Hg (1020.0 mb)
Winds: from the WNW (300 degrees) at 9 MPH (8 knots; 4.1 m/s)
Visibility: 6 or more miles (10+ km)
Ceiling: at least 12,000 feet AGL
Clouds: few clouds at 2600 feet AGL
Weather: no significant weather observed at this time

METAR text: UKLL 171100Z 33004MPS 290V020 9999 FEW023 22/15 Q1020 R31/D NOSIG
Conditions at: UKLL (LVIV , UA) observed 1100 UTC 17 June 2019
Temperature: 22.0°C (72°F)
Dewpoint: 15.0°C (59°F) [RH = 65%]
Pressure (altimeter): 30.12 inches Hg (1020.0 mb)
Winds: from the NNW (330 degrees) at 9 MPH (8 knots; 4.1 m/s)
Visibility: 6 or more miles (10+ km)
Ceiling: at least 12,000 feet AGL
Clouds: few clouds at 2300 feet AGL
Weather: no significant weather observed at this time

METAR text: UKLL 171030Z 34004MPS 280V050 9999 FEW023 22/16 Q1020 R31/CLRD// NOSIG
Conditions at: UKLL (LVIV , UA) observed 1030 UTC 17 June 2019
Temperature: 22.0°C (72°F)
Dewpoint: 16.0°C (61°F) [RH = 69%]
Pressure (altimeter): 30.12 inches Hg (1020.0 mb)
Winds: from the NNW (340 degrees) at 9 MPH (8 knots; 4.1 m/s)
Visibility: 6 or more miles (10+ km)
Ceiling: at least 12,000 feet AGL
Clouds: few clouds at 2300 feet AGL
Weather: no significant weather observed at this time

METAR text: UKLL 171000Z 32004MPS 280V340 9999 FEW023 21/17 Q1020 R31/D NOSIG
Conditions at: UKLL (LVIV , UA) observed 1000 UTC 17 June 2019
Temperature: 21.0°C (70°F)
Dewpoint: 17.0°C (63°F) [RH = 78%]
Pressure (altimeter): 30.12 inches Hg (1020.0 mb)
Winds: from the NW (320 degrees) at 9 MPH (8 knots; 4.1 m/s)
Visibility: 6 or more miles (10+ km)
Ceiling: at least 12,000 feet AGL
Clouds: few clouds at 2300 feet AGL
Weather: no significant weather observed at this time

METAR text: UKLL 170930Z 34004MPS 300V030 9999 FEW020 21/16 Q1020 R31/CLRD// TEMPO -TSRAGR BKN015CB
Conditions at: UKLL (LVIV , UA) observed 0930 UTC 17 June 2019
Temperature: 21.0°C (70°F)
Dewpoint: 16.0°C (61°F) [RH = 73%]
Pressure (altimeter): 30.12 inches Hg (1020.0 mb)
Winds: from the NNW (340 degrees) at 9 MPH (8 knots; 4.1 m/s)
Visibility: 6 or more miles (10+ km)
Ceiling: at least 12,000 feet AGL
Clouds: few clouds at 2000 feet AGL
Weather: no significant weather observed at this time

METAR text: UKLL 170900Z 33005MPS 280V010 9999 FEW020 20/16 Q1020 R31/D TEMPO -TSRAGR BKN015CB
Conditions at: UKLL (LVIV , UA) observed 0900 UTC 17 June 2019
Temperature: 20.0°C (68°F)
Dewpoint: 16.0°C (61°F) [RH = 78%]
Pressure (altimeter): 30.12 inches Hg (1020.0 mb)
Winds: from the NNW (330 degrees) at 12 MPH (10 knots; 5.1 m/s)
Visibility: 6 or more miles (10+ km)
Ceiling: at least 12,000 feet AGL
Clouds: few clouds at 2000 feet AGL
Weather: no significant weather observed at this time

METAR text: UKLL 170830Z 36003MPS 330V050 9999 SCT026CB 20/16 Q1020 R31/290055 TEMPO -TSRAGR BKN015CB
Conditions at: UKLL (LVIV , UA) observed 0830 UTC 17 June 2019
Temperature: 20.0°C (68°F)
Dewpoint: 16.0°C (61°F) [RH = 78%]
Pressure (altimeter): 30.12 inches Hg (1020.0 mb)
Winds: from the N (360 degrees) at 7 MPH (6 knots; 3.1 m/s)
Visibility: 6 or more miles (10+ km)
Ceiling: at least 12,000 feet AGL
Clouds: scattered clouds at 2600 feet AGL
Weather: no significant weather observed at this time

METAR text: UKLL 170800Z 34004MPS 9999 SCT026CB 19/16 Q1020 R31/290055 TEMPO -TSRAGR BKN015CB
Conditions at: UKLL (LVIV , UA) observed 0800 UTC 17 June 2019
Temperature: 19.0°C (66°F)
Dewpoint: 16.0°C (61°F) [RH = 83%]
Pressure (altimeter): 30.12 inches Hg (1020.0 mb)
Winds: from the NNW (340 degrees) at 9 MPH (8 knots; 4.1 m/s)
Visibility: 6 or more miles (10+ km)
Ceiling: at least 12,000 feet AGL
Clouds: scattered clouds at 2600 feet AGL
Weather: no significant weather observed at this time

METAR text: UKLL 170730Z 36003MPS 330V030 9999 SCT026CB 17/16 Q1020 R31/290055 TEMPO -TSRAGR BKN015CB
Conditions at: UKLL (LVIV , UA) observed 0730 UTC 17 June 2019
Temperature: 17.0°C (63°F)
Dewpoint: 16.0°C (61°F) [RH = 94%]
Pressure (altimeter): 30.12 inches Hg (1020.0 mb)
Winds: from the N (360 degrees) at 7 MPH (6 knots; 3.1 m/s)
Visibility: 6 or more miles (10+ km)
Ceiling: at least 12,000 feet AGL
Clouds: scattered clouds at 2600 feet AGL
Weather: no significant weather observed at this time

METAR text: UKLL 170700Z 33003MPS 9000 -SHRA SCT033CB 17/16 Q1020 R31/290055 TEMPO -TSRAGR BKN015CB
Conditions at: UKLL (LVIV , UA) observed 0700 UTC 17 June 2019
Temperature: 17.0°C (63°F)
Dewpoint: 16.0°C (61°F) [RH = 94%]
Pressure (altimeter): 30.12 inches Hg (1020.0 mb)
Winds: from the NNW (330 degrees) at 7 MPH (6 knots; 3.1 m/s)
Visibility: 6 miles ( 9 km)
Ceiling: at least 12,000 feet AGL
Clouds: scattered clouds at 3300 feet AGL
Weather: -SHRA  (light rain showers)

METAR text: UKLL 170630Z 29003MPS 250V340 9999 VCTS -SHRA SCT030CB BKN030 17/16 Q1020 R31/290055 TEMPO -TSRAGR BKN015CB
Conditions at: UKLL (LVIV , UA) observed 0630 UTC 17 June 2019
Temperature: 17.0°C (63°F)
Dewpoint: 16.0°C (61°F) [RH = 94%]
Pressure (altimeter): 30.12 inches Hg (1020.0 mb)
Winds: from the WNW (290 degrees) at 7 MPH (6 knots; 3.1 m/s)
Visibility: 6 or more miles (10+ km)
Ceiling: 3000 feet AGL
Clouds: scattered clouds at 3000 feet AGL
broken clouds at 3000 feet AGL
Weather: VCTS -SHRA  (thunderstorm in vicinity, light rain showers)

METAR text: UKLL 170605Z 02004MPS 9000 VCTS -SHRA SCT023CB BKN023 17/16 Q1019 R31/290055 TEMPO -TSRAGR BKN015CB
Conditions at: UKLL (LVIV , UA) observed 0605 UTC 17 June 2019
Temperature: 17.0°C (63°F)
Dewpoint: 16.0°C (61°F) [RH = 94%]
Pressure (altimeter): 30.09 inches Hg (1019.0 mb)
Winds: from the NNE (20 degrees) at 9 MPH (8 knots; 4.1 m/s)
Visibility: 6 miles ( 9 km)
Ceiling: 2300 feet AGL
Clouds: scattered clouds at 2300 feet AGL
broken clouds at 2300 feet AGL
Weather: VCTS -SHRA  (thunderstorm in vicinity, light rain showers)

METAR text: UKLL 170600Z 02004MPS 9000 -TSRA SCT023CB BKN023 17/16 Q1019 R31/290055 TEMPO -TSRAGR BKN015CB
Conditions at: UKLL (LVIV , UA) observed 0600 UTC 17 June 2019
Temperature: 17.0°C (63°F)
Dewpoint: 16.0°C (61°F) [RH = 94%]
Pressure (altimeter): 30.09 inches Hg (1019.0 mb)
Winds: from the NNE (20 degrees) at 9 MPH (8 knots; 4.1 m/s)
Visibility: 6 miles ( 9 km)
Ceiling: 2300 feet AGL
Clouds: scattered clouds at 2300 feet AGL
broken clouds at 2300 feet AGL
Weather: -TSRA  (light rain associated with thunderstorm(s))

METAR text: UKLL 170530Z 20004MPS 170V230 9000 -TSRA SCT022CB BKN022 17/16 Q1020 R31/290055 TEMPO -TSRA BKN015CB
Conditions at: UKLL (LVIV , UA) observed 0530 UTC 17 June 2019
Temperature: 17.0°C (63°F)
Dewpoint: 16.0°C (61°F) [RH = 94%]
Pressure (altimeter): 30.12 inches Hg (1020.0 mb)
Winds: from the SSW (200 degrees) at 9 MPH (8 knots; 4.1 m/s)
Visibility: 6 miles ( 9 km)
Ceiling: 2200 feet AGL
Clouds: scattered clouds at 2200 feet AGL
broken clouds at 2200 feet AGL
Weather: -TSRA  (light rain associated with thunderstorm(s))

METAR text: UKLL 170514Z 29003MPS 240V340 9999 -TSRA SCT020CB BKN020 18/16 Q1019 R31/290055 TEMPO -TSRA BKN015CB
Conditions at: UKLL (LVIV , UA) observed 0514 UTC 17 June 2019
Temperature: 18.0°C (64°F)
Dewpoint: 16.0°C (61°F) [RH = 88%]
Pressure (altimeter): 30.09 inches Hg (1019.0 mb)
Winds: from the WNW (290 degrees) at 7 MPH (6 knots; 3.1 m/s)
Visibility: 6 or more miles (10+ km)
Ceiling: 2000 feet AGL
Clouds: scattered clouds at 2000 feet AGL
broken clouds at 2000 feet AGL
Weather: -TSRA  (light rain associated with thunderstorm(s))

METAR text: UKLL 170500Z 34006MPS 300V010 9999 VCTS -SHRA SCT034CB BKN034 19/15 Q1018 R31/D TEMPO -TSRA BKN015CB
Conditions at: UKLL (LVIV , UA) observed 0500 UTC 17 June 2019
Temperature: 19.0°C (66°F)
Dewpoint: 15.0°C (59°F) [RH = 78%]
Pressure (altimeter): 30.06 inches Hg (1018.0 mb)
Winds: from the NNW (340 degrees) at 14 MPH (12 knots; 6.2 m/s)
Visibility: 6 or more miles (10+ km)
Ceiling: 3400 feet AGL
Clouds: scattered clouds at 3400 feet AGL
broken clouds at 3400 feet AGL
Weather: VCTS -SHRA  (thunderstorm in vicinity, light rain showers)

METAR text: UKLL 170430Z 33006MPS 9999 VCTS SCT028CB BKN028 19/17 Q1018 R31/D TEMPO -TSRA BKN015CB
Conditions at: UKLL (LVIV , UA) observed 0430 UTC 17 June 2019
Temperature: 19.0°C (66°F)
Dewpoint: 17.0°C (63°F) [RH = 88%]
Pressure (altimeter): 30.06 inches Hg (1018.0 mb)
Winds: from the NNW (330 degrees) at 14 MPH (12 knots; 6.2 m/s)
Visibility: 6 or more miles (10+ km)
Ceiling: 2800 feet AGL
Clouds: scattered clouds at 2800 feet AGL
broken clouds at 2800 feet AGL
Weather: VCTS  (thunderstorm in vicinity)

METAR text: UKLL 170421Z 33005MPS 9999 VCTS -SHRA SCT028CB BKN028 19/17 Q1018 R31/D TEMPO -TSRA BKN015CB
Conditions at: UKLL (LVIV , UA) observed 0421 UTC 17 June 2019
Temperature: 19.0°C (66°F)
Dewpoint: 17.0°C (63°F) [RH = 88%]
Pressure (altimeter): 30.06 inches Hg (1018.0 mb)
Winds: from the NNW (330 degrees) at 12 MPH (10 knots; 5.1 m/s)
Visibility: 6 or more miles (10+ km)
Ceiling: 2800 feet AGL
Clouds: scattered clouds at 2800 feet AGL
broken clouds at 2800 feet AGL
Weather: VCTS -SHRA  (thunderstorm in vicinity, light rain showers)

METAR text: UKLL 170400Z 36006MPS 9999 -SHRA SCT028CB BKN028 19/17 Q1018 R31/D NOSIG
Conditions at: UKLL (LVIV , UA) observed 0400 UTC 17 June 2019
Temperature: 19.0°C (66°F)
Dewpoint: 17.0°C (63°F) [RH = 88%]
Pressure (altimeter): 30.06 inches Hg (1018.0 mb)
Winds: from the N (360 degrees) at 14 MPH (12 knots; 6.2 m/s)
Visibility: 6 or more miles (10+ km)
Ceiling: 2800 feet AGL
Clouds: scattered clouds at 2800 feet AGL
broken clouds at 2800 feet AGL
Weather: -SHRA  (light rain showers)

METAR text: UKLL 170330Z 35004MPS 9999 OVC028 19/17 Q1018 R31/CLRD// NOSIG
Conditions at: UKLL (LVIV , UA) observed 0330 UTC 17 June 2019
Temperature: 19.0°C (66°F)
Dewpoint: 17.0°C (63°F) [RH = 88%]
Pressure (altimeter): 30.06 inches Hg (1018.0 mb)
Winds: from the N (350 degrees) at 9 MPH (8 knots; 4.1 m/s)
Visibility: 6 or more miles (10+ km)
Ceiling: 2800 feet AGL
Clouds: overcast cloud deck at 2800 feet AGL
Weather: no significant weather observed at this time

METAR text: UKLL 170300Z 33003MPS 9999 OVC026 18/17 Q1018 R31/D NOSIG
Conditions at: UKLL (LVIV , UA) observed 0300 UTC 17 June 2019
Temperature: 18.0°C (64°F)
Dewpoint: 17.0°C (63°F) [RH = 94%]
Pressure (altimeter): 30.06 inches Hg (1018.0 mb)
Winds: from the NNW (330 degrees) at 7 MPH (6 knots; 3.1 m/s)
Visibility: 6 or more miles (10+ km)
Ceiling: 2600 feet AGL
Clouds: overcast cloud deck at 2600 feet AGL
Weather: no significant weather observed at this time

METAR text: UKLL 170230Z 32003MPS CAVOK 18/17 Q1018 R31/D NOSIG
Conditions at: UKLL (LVIV , UA) observed 0230 UTC 17 June 2019
Temperature: 18.0°C (64°F)
Dewpoint: 17.0°C (63°F) [RH = 94%]
Pressure (altimeter): 30.06 inches Hg (1018.0 mb)
Winds: from the NW (320 degrees) at 7 MPH (6 knots; 3.1 m/s)
Visibility: 6 or more miles (10+ km)
Ceiling: ceiling and visibility are OK
Clouds: unknown
Weather: no significant weather observed at this time

METAR text: UKLL 170200Z 33003MPS CAVOK 18/17 Q1018 R31/D NOSIG
Conditions at: UKLL (LVIV , UA) observed 0200 UTC 17 June 2019
Temperature: 18.0°C (64°F)
Dewpoint: 17.0°C (63°F) [RH = 94%]
Pressure (altimeter): 30.06 inches Hg (1018.0 mb)
Winds: from the NNW (330 degrees) at 7 MPH (6 knots; 3.1 m/s)
Visibility: 6 or more miles (10+ km)
Ceiling: ceiling and visibility are OK
Clouds: unknown
Weather: no significant weather observed at this time

METAR text: UKLL 170130Z 31003MPS CAVOK 18/17 Q1017 R31/290055 NOSIG
Conditions at: UKLL (LVIV , UA) observed 0130 UTC 17 June 2019
Temperature: 18.0°C (64°F)
Dewpoint: 17.0°C (63°F) [RH = 94%]
Pressure (altimeter): 30.03 inches Hg (1017.0 mb)
Winds: from the NW (310 degrees) at 7 MPH (6 knots; 3.1 m/s)
Visibility: 6 or more miles (10+ km)
Ceiling: ceiling and visibility are OK
Clouds: unknown
Weather: no significant weather observed at this time

METAR text: UKLL 170100Z 30003MPS 270V340 CAVOK 19/18 Q1017 R31/290055 NOSIG
Conditions at: UKLL (LVIV , UA) observed 0100 UTC 17 June 2019
Temperature: 19.0°C (66°F)
Dewpoint: 18.0°C (64°F) [RH = 94%]
Pressure (altimeter): 30.03 inches Hg (1017.0 mb)
Winds: from the WNW (300 degrees) at 7 MPH (6 knots; 3.1 m/s)
Visibility: 6 or more miles (10+ km)
Ceiling: ceiling and visibility are OK
Clouds: unknown
Weather: no significant weather observed at this time

METAR text: UKLL 170030Z 00000MPS CAVOK 18/18 Q1017 R31/290055 TEMPO -TSRA BKN020CB
Conditions at: UKLL (LVIV , UA) observed 0030 UTC 17 June 2019
Temperature: 18.0°C (64°F)
Dewpoint: 18.0°C (64°F) [RH = 100%]
Pressure (altimeter): 30.03 inches Hg (1017.0 mb)
Winds: calm
Visibility: 6 or more miles (10+ km)
Ceiling: ceiling and visibility are OK
Clouds: unknown
Weather: no significant weather observed at this time

METAR text: UKLL 170000Z 27001MPS 9999 SCT046CB 19/18 Q1017 R31/290055 TEMPO -TSRA BKN020CB
Conditions at: UKLL (LVIV , UA) observed 0000 UTC 17 June 2019
Temperature: 19.0°C (66°F)
Dewpoint: 18.0°C (64°F) [RH = 94%]
Pressure (altimeter): 30.03 inches Hg (1017.0 mb)
Winds: from the W (270 degrees) at 2 MPH (2 knots; 1.0 m/s)
Visibility: 6 or more miles (10+ km)
Ceiling: at least 12,000 feet AGL
Clouds: scattered clouds at 4600 feet AGL
Weather: no significant weather observed at this time

METAR text: UKLL 162330Z 31002MPS 280V340 9999 BKN040CB 20/18 Q1017 R31/290055 TEMPO -TSRA BKN020CB
Conditions at: UKLL (LVIV , UA) observed 2330 UTC 16 June 2019
Temperature: 20.0°C (68°F)
Dewpoint: 18.0°C (64°F) [RH = 88%]
Pressure (altimeter): 30.03 inches Hg (1017.0 mb)
Winds: from the NW (310 degrees) at 5 MPH (4 knots; 2.1 m/s)
Visibility: 6 or more miles (10+ km)
Ceiling: 4000 feet AGL
Clouds: broken clouds at 4000 feet AGL
Weather: no significant weather observed at this time

METAR text: UKLL 162300Z 34004MPS 9999 BKN040CB 19/18 Q1017 R31/290055 TEMPO -TSRA BKN020CB
Conditions at: UKLL (LVIV , UA) observed 2300 UTC 16 June 2019
Temperature: 19.0°C (66°F)
Dewpoint: 18.0°C (64°F) [RH = 94%]
Pressure (altimeter): 30.03 inches Hg (1017.0 mb)
Winds: from the NNW (340 degrees) at 9 MPH (8 knots; 4.1 m/s)
Visibility: 6 or more miles (10+ km)
Ceiling: 4000 feet AGL
Clouds: broken clouds at 4000 feet AGL
Weather: no significant weather observed at this time

Forecast for: UKLL (LVIV , UA)
Text: TAF UKLL 180503Z 1806/1906 07005MPS 9999 BKN020
Forecast period: 0600 to 2100 UTC 18 June 2019
Forecast type: FROM: standard forecast or significant change
Winds: from the ENE (70 degrees) at 12 MPH (10 knots; 5.1 m/s)
Visibility: 6 or more miles 10+ km)
Ceiling: 2000 feet AGL
Clouds: broken clouds at 2000 feet AGL
Weather: no significant weather forecast for this period
Text: TEMPO 1806/1812 3000 -SHRA BKN010 BKN020CB
Forecast period: 0600 to 1200 UTC 18 June 2019
Forecast type: TEMPORARY: The following changes expected for less than half the time period
Visibility: 1.86 miles (2.99 km)
Ceiling: 1000 feet AGL
Clouds: broken clouds at 1000 feet AGL
broken clouds at 2000 feet AGL
Weather: -SHRA  (light rain showers)
Text: BECMG 1821/1822 10003MPS
Forecast period: 2100 UTC 18 June 2019 to 0600 UTC 19 June 2019
Forecast type: BECOMING: Conditions expected to become as follows by 2200 UTC 18 June 2019
Winds: from the E (100 degrees) at 7 MPH (6 knots; 3.1 m/s)
Visibility: 6 or more miles 10+ km)
Ceiling: 2000 feet AGL
Clouds: broken clouds at 2000 feet AGL
Weather: no significant weather forecast for this period
Text: TEMPO 1822/1906 2100 -SHRA BKN007 BKN018CB
Forecast period: 2200 UTC 18 June 2019 to 0600 UTC 19 June 2019
Forecast type: TEMPORARY: The following changes expected for less than half the time period
Visibility: 1.30 miles (2.09 km)
Ceiling: 700 feet AGL
Clouds: broken clouds at 700 feet AGL
broken clouds at 1800 feet AGL
Weather: -SHRA  (light rain showers)